Time;durP1;ratioP1;P1;durP2;ratioP2;P2;SDS_P1;SDS_P2;PMS_P1;PMS_P2;Temp;Humidity;BMP_temperature;BMP_pressure;BME280_temperature;BME280_humidity;BME280_pressure;Samples;Min_cycle;Max_cycle;Signal;HPM_P1;HPM_P2
2022/06/29 00:00:22;;;;;;;4.13;2.10;;;18.90;99.90;;;;;;5071413;28;20041;-77
2022/06/29 00:02:50;;;;;;;2.30;1.80;;;18.80;99.90;;;;;;5070492;28;20090;-77
2022/06/29 00:05:20;;;;;;;2.03;1.85;;;18.80;99.90;;;;;;5071268;28;20048;-76
2022/06/29 00:07:48;;;;;;;5.35;1.80;;;18.70;99.90;;;;;;5071622;28;20135;-76
2022/06/29 00:10:16;;;;;;;2.22;1.55;;;18.70;99.90;;;;;;5071460;28;20504;-76
2022/06/29 00:12:44;;;;;;;2.40;2.00;;;18.60;99.90;;;;;;5070968;28;20048;-76
2022/06/29 00:15:12;;;;;;;2.85;2.05;;;18.60;99.90;;;;;;5070024;28;20072;-76
2022/06/29 00:17:41;;;;;;;3.67;2.15;;;18.70;99.90;;;;;;5071095;28;20463;-76
2022/06/29 00:20:12;;;;;;;5.63;2.35;;;18.60;99.90;;;;;;5052796;28;20044;-76
2022/06/29 00:22:40;;;;;;;2.15;1.95;;;18.60;99.90;;;;;;5070133;28;20053;-76
2022/06/29 00:25:09;;;;;;;3.75;1.85;;;18.60;99.90;;;;;;5069887;28;20078;-76
2022/06/29 00:27:38;;;;;;;4.10;2.53;;;18.60;99.90;;;;;;5071491;28;20051;-76
2022/06/29 00:30:07;;;;;;;4.72;2.25;;;18.60;99.90;;;;;;5053600;28;20056;-75
2022/06/29 00:32:34;;;;;;;5.72;2.15;;;18.50;99.90;;;;;;5069833;28;20051;-75
2022/06/29 00:35:04;;;;;;;2.83;2.10;;;18.50;99.90;;;;;;5069408;28;20631;-75
2022/06/29 00:37:31;;;;;;;2.88;1.90;;;18.50;99.90;;;;;;5069918;28;20055;-76
2022/06/29 00:39:59;;;;;;;4.57;2.22;;;18.50;99.90;;;;;;5069488;28;20051;-75
2022/06/29 00:42:26;;;;;;;3.65;2.50;;;18.50;99.90;;;;;;5070738;28;20102;-76
2022/06/29 00:44:54;;;;;;;3.67;1.98;;;18.60;99.90;;;;;;5069553;28;20048;-76
2022/06/29 00:47:22;;;;;;;4.70;2.45;;;18.60;99.90;;;;;;5069351;28;20044;-77
2022/06/29 00:49:49;;;;;;;2.92;2.22;;;18.60;99.90;;;;;;5052548;28;20533;-76
2022/06/29 00:52:20;;;;;;;4.50;1.98;;;18.60;99.90;;;;;;5069030;28;20134;-76
2022/06/29 00:54:53;;;;;;;3.88;2.20;;;18.50;99.90;;;;;;5052882;28;20076;-75
2022/06/29 00:57:23;;;;;;;5.20;2.10;;;18.60;99.90;;;;;;5070451;28;20136;-76
2022/06/29 00:59:52;;;;;;;5.18;2.15;;;18.50;99.90;;;;;;5069164;28;20098;-76
2022/06/29 01:02:22;;;;;;;3.65;2.15;;;18.50;99.90;;;;;;5069503;28;20058;-76
2022/06/29 01:04:50;;;;;;;2.55;2.15;;;18.50;99.90;;;;;;5070686;28;20052;-77
2022/06/29 01:07:20;;;;;;;7.88;3.00;;;18.40;99.90;;;;;;5070946;28;20079;-75
2022/06/29 01:09:48;;;;;;;2.70;2.50;;;18.40;99.90;;;;;;5070665;28;20593;-75
2022/06/29 01:12:16;;;;;;;3.85;2.20;;;18.30;99.90;;;;;;5071180;28;20570;-75
2022/06/29 01:14:44;;;;;;;1.95;1.80;;;18.30;99.90;;;;;;5070387;28;20052;-75
2022/06/29 01:17:12;;;;;;;4.32;2.20;;;18.30;99.90;;;;;;5069333;28;20052;-75
2022/06/29 01:19:40;;;;;;;2.65;2.13;;;18.20;99.90;;;;;;5069390;28;20143;-76
2022/06/29 01:22:11;;;;;;;3.63;2.47;;;18.20;99.90;;;;;;5052694;28;20447;-75
2022/06/29 01:24:39;;;;;;;3.80;1.95;;;18.20;99.90;;;;;;5070613;28;20079;-76
2022/06/29 01:27:07;;;;;;;5.57;2.55;;;18.20;99.90;;;;;;5069222;28;20049;-76
2022/06/29 01:29:35;;;;;;;4.47;2.50;;;18.20;99.90;;;;;;5069159;28;20087;-75
2022/06/29 01:32:02;;;;;;;4.80;1.90;;;18.20;99.90;;;;;;5070001;28;20118;-75
2022/06/29 01:34:31;;;;;;;3.95;2.50;;;18.20;99.90;;;;;;5070183;28;20044;-76
2022/06/29 01:36:58;;;;;;;2.70;2.05;;;18.20;99.90;;;;;;5068428;28;20466;-75
2022/06/29 01:39:28;;;;;;;2.75;1.92;;;18.20;99.90;;;;;;5052183;28;20059;-75
2022/06/29 01:41:55;;;;;;;3.55;2.10;;;18.20;99.90;;;;;;5069839;28;20074;-75
2022/06/29 01:44:23;;;;;;;8.20;1.95;;;18.20;99.90;;;;;;5069890;28;20067;-75
2022/06/29 01:46:50;;;;;;;5.28;2.15;;;18.20;99.90;;;;;;5069851;28;20045;-75
2022/06/29 01:49:18;;;;;;;5.28;2.65;;;18.10;99.90;;;;;;5070380;28;20052;-76
2022/06/29 01:51:45;;;;;;;5.18;2.30;;;18.10;99.90;;;;;;5051910;28;20502;-75
2022/06/29 01:54:12;;;;;;;6.13;2.30;;;18.10;99.90;;;;;;5068959;28;20052;-75
2022/06/29 01:56:41;;;;;;;6.35;2.15;;;18.20;99.90;;;;;;5068862;28;20049;-75
2022/06/29 01:59:08;;;;;;;4.45;2.45;;;18.20;99.90;;;;;;5071169;28;20063;-75
2022/06/29 02:01:36;;;;;;;4.57;1.85;;;18.20;99.90;;;;;;5072687;28;20045;-75
2022/06/29 02:04:03;;;;;;;3.70;2.00;;;18.20;99.90;;;;;;5072342;28;20048;-75
2022/06/29 02:06:30;;;;;;;5.03;2.30;;;18.20;99.90;;;;;;5072825;28;20065;-75
2022/06/29 02:08:58;;;;;;;5.70;2.30;;;18.20;99.90;;;;;;5055541;28;20432;-75
2022/06/29 02:11:25;;;;;;;5.60;2.17;;;18.20;99.90;;;;;;5073549;28;20048;-75
2022/06/29 02:13:54;;;;;;;4.15;2.13;;;18.20;99.90;;;;;;5073895;28;20056;-75
2022/06/29 02:16:21;;;;;;;4.43;2.03;;;18.30;99.90;;;;;;5071518;28;20049;-76
2022/06/29 02:18:48;;;;;;;3.45;2.10;;;18.30;99.90;;;;;;5072154;28;20114;-75
2022/06/29 02:21:16;;;;;;;5.30;2.38;;;18.30;99.90;;;;;;5055820;28;20072;-75
2022/06/29 02:23:44;;;;;;;4.65;2.15;;;18.30;99.90;;;;;;5073566;28;20462;-75
2022/06/29 02:26:12;;;;;;;8.60;2.63;;;18.30;99.90;;;;;;5073235;28;20063;-76
2022/06/29 02:28:39;;;;;;;6.85;2.05;;;18.30;99.90;;;;;;5073759;28;20574;-74
2022/06/29 02:36:38;;;;;;;7.45;2.20;;;18.30;99.90;;;;;;5072015;28;20517;-75
2022/06/29 02:39:05;;;;;;;3.55;2.10;;;18.30;99.90;;;;;;5072162;28;20044;-75
2022/06/29 02:41:32;;;;;;;5.20;2.10;;;18.30;99.90;;;;;;5071712;28;20139;-75
2022/06/29 02:44:00;;;;;;;5.18;1.95;;;18.30;99.90;;;;;;5071823;28;20088;-75
2022/06/29 02:46:28;;;;;;;2.25;1.98;;;18.30;99.90;;;;;;5054997;28;20144;-75
2022/06/29 02:48:56;;;;;;;3.30;2.20;;;18.30;99.90;;;;;;5072868;28;20040;-75
2022/06/29 02:51:23;;;;;;;6.05;1.55;;;18.30;99.90;;;;;;5072824;28;20101;-74
2022/06/29 02:53:50;;;;;;;5.43;2.17;;;18.30;99.90;;;;;;5071679;28;20451;-74
2022/06/29 02:56:17;;;;;;;4.40;1.90;;;18.30;99.90;;;;;;5070967;28;20197;-75
2022/06/29 02:58:45;;;;;;;7.40;2.20;;;18.30;99.90;;;;;;5072599;28;20084;-74
2022/06/29 03:01:12;;;;;;;2.63;1.60;;;18.40;99.90;;;;;;5054415;28;20524;-74
2022/06/29 03:03:41;;;;;;;7.55;2.58;;;18.40;99.90;;;;;;5071161;28;20056;-74
2022/06/29 03:06:08;;;;;;;4.65;1.70;;;18.40;99.90;;;;;;5072548;28;20044;-74
2022/06/29 03:08:35;;;;;;;4.35;2.05;;;18.40;99.90;;;;;;5072459;28;20070;-75
2022/06/29 03:11:03;;;;;;;1.95;1.85;;;18.30;99.90;;;;;;5070838;28;20059;-75
2022/06/29 03:13:30;;;;;;;1.80;1.70;;;18.30;99.90;;;;;;5071046;28;20102;-74
2022/06/29 03:15:57;;;;;;;4.20;1.75;;;18.30;99.90;;;;;;5072030;28;20060;-74
2022/06/29 03:18:25;;;;;;;9.65;2.20;;;18.30;99.90;;;;;;5070856;28;20125;-76
2022/06/29 03:20:53;;;;;;;8.70;1.95;;;18.40;99.90;;;;;;5070787;28;20475;-76
2022/06/29 03:23:21;;;;;;;4.53;2.00;;;18.30;99.90;;;;;;5072111;28;20048;-75
2022/06/29 03:25:48;;;;;;;2.85;1.48;;;18.30;99.90;;;;;;5070678;28;20052;-76
2022/06/29 03:28:15;;;;;;;2.85;1.75;;;18.30;99.90;;;;;;5072727;28;20102;-76
2022/06/29 03:30:43;;;;;;;4.88;2.13;;;18.30;99.90;;;;;;5071519;28;20040;-75
2022/06/29 03:33:10;;;;;;;3.63;2.05;;;18.30;99.90;;;;;;5069090;28;20535;-75
2022/06/29 03:35:38;;;;;;;4.15;2.35;;;18.40;99.90;;;;;;5042071;28;20083;-74
2022/06/29 03:38:07;;;;;;;3.38;2.00;;;18.40;99.90;;;;;;5050916;28;20052;-74
2022/06/29 03:40:34;;;;;;;7.07;2.85;;;18.40;99.90;;;;;;5068003;28;20045;-73
2022/06/29 03:43:01;;;;;;;5.13;1.80;;;18.50;99.90;;;;;;5052416;28;20056;-74
2022/06/29 03:45:28;;;;;;;12.50;2.80;;;18.50;99.90;;;;;;5051480;28;20136;-73
2022/06/29 03:47:56;;;;;;;5.85;1.95;;;18.60;99.90;;;;;;5061839;28;20107;-73
2022/06/29 03:50:23;;;;;;;3.83;2.40;;;18.60;99.90;;;;;;5050941;28;20044;-73
2022/06/29 03:52:50;;;;;;;5.25;2.08;;;18.60;99.90;;;;;;5070267;28;20059;-74
2022/06/29 03:55:19;;;;;;;5.03;2.17;;;18.70;99.90;;;;;;5069602;28;20074;-75
2022/06/29 03:57:47;;;;;;;5.93;1.77;;;18.70;99.90;;;;;;5043624;28;20143;-75
2022/06/29 04:00:15;;;;;;;5.78;1.70;;;18.70;99.90;;;;;;5059130;28;20049;-75
2022/06/29 04:02:43;;;;;;;8.05;2.10;;;18.80;99.90;;;;;;5058721;28;20057;-75
2022/06/29 04:05:11;;;;;;;2.58;1.80;;;18.80;99.90;;;;;;5060405;28;20049;-75
2022/06/29 04:07:38;;;;;;;5.55;1.77;;;18.80;99.90;;;;;;5060099;28;20426;-76
2022/06/29 04:10:06;;;;;;;1.70;1.50;;;18.80;99.90;;;;;;5065267;28;20050;-76
2022/06/29 04:12:37;;;;;;;6.55;1.70;;;18.80;99.90;;;;;;5063113;28;20413;-76
2022/06/29 04:15:06;;;;;;;3.08;1.90;;;18.80;99.90;;;;;;5060461;28;20466;-76
2022/06/29 04:17:34;;;;;;;5.60;1.95;;;18.90;99.90;;;;;;5059392;28;20544;-76
2022/06/29 04:20:02;;;;;;;7.53;2.60;;;19.00;99.90;;;;;;5060572;28;20075;-76
2022/06/29 04:22:31;;;;;;;8.43;1.90;;;19.10;99.90;;;;;;5059721;28;20049;-76
2022/06/29 04:24:58;;;;;;;5.07;2.95;;;19.10;99.90;;;;;;5058356;28;20526;-76
2022/06/29 04:27:26;;;;;;;5.15;2.58;;;19.20;99.90;;;;;;5058469;28;20036;-76
2022/06/29 04:29:55;;;;;;;3.90;2.00;;;19.30;99.90;;;;;;5059024;28;20143;-76
2022/06/29 04:32:22;;;;;;;4.25;2.15;;;19.40;99.90;;;;;;5060393;28;20052;-76
2022/06/29 04:34:49;;;;;;;7.85;2.63;;;19.40;99.90;;;;;;5059764;28;20072;-76
2022/06/29 04:37:17;;;;;;;4.07;1.80;;;19.50;99.90;;;;;;5056498;28;20044;-75
2022/06/29 04:39:44;;;;;;;5.05;2.15;;;19.60;99.90;;;;;;5059675;28;20093;-77
2022/06/29 04:42:12;;;;;;;4.65;1.95;;;19.70;99.90;;;;;;5059838;28;20060;-77
2022/06/29 04:44:39;;;;;;;3.88;1.63;;;19.80;99.90;;;;;;5056914;28;20044;-76
2022/06/29 04:47:09;;;;;;;3.40;1.85;;;19.90;99.90;;;;;;5058228;28;20489;-76
2022/06/29 04:49:36;;;;;;;4.90;1.85;;;20.00;99.90;;;;;;5060167;28;20103;-76
2022/06/29 04:52:04;;;;;;;10.02;2.30;;;20.10;99.90;;;;;;5040668;28;20502;-75
2022/06/29 04:54:32;;;;;;;11.00;2.40;;;20.10;99.90;;;;;;5058772;28;20044;-74
2022/06/29 04:56:59;;;;;;;5.65;2.13;;;20.20;99.90;;;;;;5059785;28;20052;-75
2022/06/29 04:59:26;;;;;;;3.25;2.40;;;20.30;99.90;;;;;;5059328;28;20055;-75
2022/06/29 05:01:53;;;;;;;2.90;1.58;;;20.40;99.90;;;;;;5056387;28;20397;-75
2022/06/29 05:04:22;;;;;;;5.20;1.80;;;20.40;99.90;;;;;;5059380;28;20052;-75
2022/06/29 05:06:50;;;;;;;2.63;1.55;;;20.50;99.90;;;;;;5058779;28;20052;-75
2022/06/29 05:09:17;;;;;;;5.03;1.80;;;20.60;99.90;;;;;;5056524;28;20056;-76
2022/06/29 05:11:44;;;;;;;3.17;1.60;;;20.70;99.90;;;;;;5057663;28;20582;-76
2022/06/29 05:14:12;;;;;;;2.90;1.60;;;20.70;99.90;;;;;;5059374;28;20055;-76
2022/06/29 05:16:39;;;;;;;6.75;1.90;;;20.80;99.90;;;;;;5057180;28;20066;-76
2022/06/29 05:19:06;;;;;;;8.30;2.40;;;20.90;99.90;;;;;;5058678;28;20135;-76
2022/06/29 05:21:35;;;;;;;3.40;1.80;;;20.90;99.90;;;;;;5057861;28;20067;-77
2022/06/29 05:24:02;;;;;;;3.15;1.52;;;21.00;99.90;;;;;;5058045;28;20082;-76
2022/06/29 05:26:29;;;;;;;6.53;2.15;;;21.20;99.90;;;;;;5057325;28;20514;-77
2022/06/29 05:28:57;;;;;;;5.45;1.50;;;21.30;99.90;;;;;;5057245;28;20049;-76
2022/06/29 05:31:29;;;;;;;3.35;1.40;;;21.50;99.90;;;;;;5058897;28;20143;-77
2022/06/29 05:33:56;;;;;;;4.22;2.05;;;21.60;99.90;;;;;;5063825;28;20117;-76
2022/06/29 05:36:24;;;;;;;5.47;2.90;;;21.70;99.80;;;;;;5061888;28;20429;-75
2022/06/29 05:38:52;;;;;;;11.80;2.65;;;21.80;99.80;;;;;;5062211;28;20248;-76
2022/06/29 05:41:20;;;;;;;7.28;1.88;;;22.00;99.90;;;;;;5062565;28;20101;-76
2022/06/29 05:43:51;;;;;;;5.38;2.05;;;22.30;99.60;;;;;;5061116;28;20216;-77
2022/06/29 05:46:19;;;;;;;4.85;1.75;;;22.60;96.40;;;;;;5061357;28;20703;-77
2022/06/29 05:48:47;;;;;;;5.53;2.33;;;23.20;97.10;;;;;;5061724;28;20053;-77
2022/06/29 05:51:14;;;;;;;5.70;2.38;;;23.70;93.80;;;;;;5063194;28;20045;-76
2022/06/29 05:53:41;;;;;;;4.03;1.75;;;24.10;91.80;;;;;;5064310;28;20057;-76
2022/06/29 05:56:09;;;;;;;5.55;1.92;;;24.40;88.60;;;;;;5060833;28;20131;-75
2022/06/29 05:58:37;;;;;;;4.93;1.67;;;24.80;85.90;;;;;;5061605;28;20094;-77
2022/06/29 06:01:06;;;;;;;4.00;2.00;;;25.20;81.60;;;;;;5068148;28;20056;-76
2022/06/29 06:03:34;;;;;;;4.38;2.05;;;25.40;80.50;;;;;;5062420;28;20052;-76
2022/06/29 06:06:01;;;;;;;2.85;1.85;;;25.80;81.90;;;;;;5060742;28;20045;-75
2022/06/29 06:08:28;;;;;;;5.10;2.35;;;26.30;77.30;;;;;;5060867;28;20068;-77
2022/06/29 06:10:55;;;;;;;5.38;1.80;;;26.80;76.80;;;;;;5061851;28;20416;-77
2022/06/29 06:13:24;;;;;;;5.75;1.98;;;27.20;73.00;;;;;;5066134;28;20044;-74
2022/06/29 06:15:51;;;;;;;6.65;1.75;;;27.60;71.10;;;;;;5063764;28;20452;-74
2022/06/29 06:18:19;;;;;;;4.43;2.00;;;27.90;71.50;;;;;;5061755;28;20465;-75
2022/06/29 06:20:46;;;;;;;4.60;1.77;;;28.50;72.40;;;;;;5062272;28;20421;-75
2022/06/29 06:23:13;;;;;;;3.42;1.65;;;28.70;68.70;;;;;;5061211;28;20044;-75
2022/06/29 06:25:41;;;;;;;3.53;1.88;;;29.10;68.70;;;;;;5060923;28;20041;-75
2022/06/29 06:28:08;;;;;;;4.22;1.80;;;29.40;68.70;;;;;;5067771;28;20086;-75
2022/06/29 06:30:37;;;;;;;4.03;1.75;;;29.80;67.50;;;;;;5068134;28;20045;-76
2022/06/29 06:33:05;;;;;;;5.93;1.52;;;30.20;64.10;;;;;;5062072;28;20700;-76
2022/06/29 06:35:33;;;;;;;2.05;1.52;;;30.30;62.20;;;;;;5062480;28;20143;-76
2022/06/29 06:38:01;;;;;;;7.65;2.33;;;30.60;63.40;;;;;;5067862;28;20052;-76
2022/06/29 06:43:28;;;;;;;5.82;1.60;;;30.50;59.20;;;;;;4971895;28;20499;-76
2022/06/29 06:45:57;;;;;;;8.70;2.20;;;30.40;61.60;;;;;;4989370;28;20545;-77
2022/06/29 06:48:24;;;;;;;8.07;1.77;;;30.50;58.50;;;;;;5025738;28;20139;-78
2022/06/29 06:50:51;;;;;;;4.15;1.80;;;30.60;60.60;;;;;;5071794;28;20040;-79
2022/06/29 06:53:19;;;;;;;8.90;1.80;;;31.00;60.00;;;;;;5070429;28;20509;-78
2022/06/29 06:55:46;;;;;;;4.10;1.50;;;31.40;58.90;;;;;;5070405;28;20508;-79
2022/06/29 06:58:13;;;;;;;5.15;1.83;;;31.90;57.50;;;;;;5071915;28;20099;-79
2022/06/29 07:00:41;;;;;;;6.18;1.70;;;32.30;55.90;;;;;;5071758;28;20076;-79
2022/06/29 07:03:10;;;;;;;4.22;1.55;;;32.50;56.30;;;;;;5070231;28;20693;-78
2022/06/29 07:05:37;;;;;;;5.65;1.90;;;32.60;55.00;;;;;;5071764;28;20094;-78
2022/06/29 07:08:05;;;;;;;7.70;1.60;;;32.70;55.00;;;;;;5072164;28;20098;-78
2022/06/29 07:10:33;;;;;;;7.00;2.55;;;32.70;54.50;;;;;;5071924;28;20041;-78
2022/06/29 07:13:00;;;;;;;5.65;2.25;;;32.80;55.50;;;;;;5071689;28;20048;-78
2022/06/29 07:15:27;;;;;;;6.60;2.13;;;32.80;53.70;;;;;;5070060;28;20041;-78
2022/06/29 07:17:55;;;;;;;5.85;1.73;;;32.70;52.80;;;;;;5067940;28;20041;-78
2022/06/29 07:20:28;;;;;;;4.60;2.55;;;32.90;53.90;;;;;;5071600;28;20053;-79
2022/06/29 07:22:55;;;;;;;8.43;1.60;;;33.20;54.00;;;;;;5069969;28;20099;-78
2022/06/29 07:25:23;;;;;;;4.43;1.65;;;33.40;52.00;;;;;;5070245;28;20080;-78
2022/06/29 07:27:50;;;;;;;7.57;2.03;;;33.40;53.40;;;;;;5069523;28;20068;-76
2022/06/29 07:30:18;;;;;;;5.85;1.15;;;33.60;53.70;;;;;;5071572;28;20040;-78
2022/06/29 07:32:45;;;;;;;4.05;1.63;;;34.00;51.80;;;;;;5069411;28;20083;-79
2022/06/29 07:35:12;;;;;;;6.07;1.42;;;34.40;51.90;;;;;;5071972;28;20055;-79
2022/06/29 07:37:42;;;;;;;3.88;1.23;;;34.60;50.10;;;;;;5071455;28;20474;-79
2022/06/29 07:40:11;;;;;;;5.13;1.45;;;34.80;49.90;;;;;;5069227;28;20562;-79
2022/06/29 07:42:38;;;;;;;2.13;1.17;;;35.40;49.10;;;;;;5071704;28;20413;-78
2022/06/29 07:45:07;;;;;;;4.55;1.48;;;35.50;47.70;;;;;;5070545;28;20458;-79
2022/06/29 07:47:34;;;;;;;5.55;1.10;;;35.60;49.10;;;;;;5059014;28;20461;-78
2022/06/29 07:50:01;;;;;;;15.90;1.63;;;35.70;46.40;;;;;;5061355;28;20051;-79
2022/06/29 07:52:32;;;;;;;5.35;2.15;;;35.30;48.30;;;;;;5068293;28;20044;-79
2022/06/29 07:55:02;;;;;;;5.90;1.40;;;35.40;48.80;;;;;;5052419;28;20151;-78
2022/06/29 07:57:31;;;;;;;4.38;1.42;;;35.60;46.50;;;;;;5066143;28;20041;-80
2022/06/29 07:59:58;;;;;;;5.72;1.40;;;35.80;46.80;;;;;;5070443;28;20083;-80
2022/06/29 08:02:26;;;;;;;5.85;1.20;;;35.90;46.60;;;;;;5071413;28;20477;-78
2022/06/29 08:04:53;;;;;;;6.03;1.45;;;36.20;45.60;;;;;;5071690;28;20151;-79
2022/06/29 08:07:21;;;;;;;3.15;1.08;;;36.50;44.60;;;;;;5068091;28;20133;-79
2022/06/29 08:09:48;;;;;;;6.30;1.98;;;36.50;45.60;;;;;;5069929;28;20040;-79
2022/06/29 08:12:17;;;;;;;7.15;1.30;;;36.60;45.20;;;;;;5067448;28;20053;-79
2022/06/29 08:14:45;;;;;;;5.85;1.10;;;36.70;45.50;;;;;;5069695;28;20127;-79
2022/06/29 08:17:12;;;;;;;3.05;1.40;;;36.90;45.60;;;;;;5070972;28;20143;-78
2022/06/29 08:19:39;;;;;;;3.50;1.40;;;37.10;43.90;;;;;;5070200;28;20131;-78
2022/06/29 08:22:07;;;;;;;5.45;1.20;;;37.30;43.10;;;;;;5067762;28;20040;-78
2022/06/29 08:24:34;;;;;;;4.20;1.38;;;37.70;43.00;;;;;;5070772;28;20137;-78
2022/06/29 08:27:01;;;;;;;7.85;1.08;;;37.60;43.50;;;;;;5070067;28;20040;-78
2022/06/29 08:29:31;;;;;;;9.05;1.58;;;37.50;43.40;;;;;;5071436;28;20044;-78
2022/06/29 08:31:58;;;;;;;4.22;1.60;;;37.80;42.90;;;;;;5071176;28;20447;-78
2022/06/29 08:34:26;;;;;;;4.80;1.67;;;38.10;43.90;;;;;;5070151;28;20074;-78
2022/06/29 08:36:53;;;;;;;5.07;1.40;;;38.20;42.90;;;;;;5067380;28;20148;-79
2022/06/29 08:39:21;;;;;;;6.25;1.38;;;38.20;42.30;;;;;;5070165;28;20090;-78
2022/06/29 08:41:49;;;;;;;4.35;1.77;;;38.30;41.20;;;;;;5069443;28;20048;-78
2022/06/29 08:44:18;;;;;;;8.02;1.45;;;38.30;42.60;;;;;;5053318;28;20151;-79
2022/06/29 08:46:47;;;;;;;5.05;1.63;;;38.50;41.40;;;;;;5070691;28;20558;-77
2022/06/29 08:49:14;;;;;;;9.13;1.55;;;38.70;41.10;;;;;;5052732;28;20048;-77
2022/06/29 08:51:45;;;;;;;2.25;1.20;;;38.90;42.20;;;;;;5069388;28;20048;-79
2022/06/29 08:54:16;;;;;;;5.82;1.40;;;39.10;39.70;;;;;;5070202;28;20093;-76
2022/06/29 08:56:44;;;;;;;4.88;1.30;;;39.40;38.90;;;;;;5051927;28;20142;-76
2022/06/29 08:59:12;;;;;;;5.82;1.02;;;38.90;39.90;;;;;;5068977;28;20090;-75
2022/06/29 09:01:40;;;;;;;3.97;1.17;;;38.90;39.10;;;;;;5070190;28;20543;-76
2022/06/29 09:04:09;;;;;;;5.65;1.63;;;38.40;40.10;;;;;;5070275;28;20118;-76
2022/06/29 09:06:36;;;;;;;4.20;1.20;;;38.40;39.70;;;;;;5068805;28;20051;-76
2022/06/29 09:09:03;;;;;;;5.97;1.20;;;38.60;39.20;;;;;;5069367;28;20091;-76
2022/06/29 09:11:31;;;;;;;4.53;1.45;;;38.90;39.80;;;;;;5070589;28;20064;-76
2022/06/29 09:14:14;;;;;;;1.85;0.90;;;39.10;38.80;;;;;;5070910;28;20044;-76
2022/06/29 09:16:55;;;;;;;4.32;1.25;;;38.90;39.80;;;;;;5066556;28;20114;-76
2022/06/29 09:19:28;;;;;;;2.65;1.23;;;39.00;38.60;;;;;;5069325;28;20428;-76
2022/06/29 09:21:57;;;;;;;4.18;1.23;;;39.10;39.90;;;;;;5070390;28;20052;-77
2022/06/29 09:24:26;;;;;;;4.05;1.00;;;39.30;38.50;;;;;;5067217;28;20072;-77
2022/06/29 09:26:55;;;;;;;2.17;1.30;;;39.40;37.60;;;;;;5059580;28;20102;-79
2022/06/29 09:29:24;;;;;;;1.75;1.10;;;39.60;38.10;;;;;;5070150;28;20055;-77
2022/06/29 09:32:15;;;;;;;2.28;1.40;;;39.90;39.30;;;;;;5070142;28;20131;-77
2022/06/29 09:34:46;;;;;;;3.50;1.30;;;40.10;35.70;;;;;;5070313;28;20063;-78
2022/06/29 09:37:14;;;;;;;3.30;0.98;;;39.80;36.70;;;;;;5070972;28;20107;-77
2022/06/29 09:39:44;;;;;;;4.00;1.33;;;39.50;38.60;;;;;;5070449;28;20102;-77
2022/06/29 09:42:13;;;;;;;3.05;1.42;;;39.70;38.40;;;;;;5069461;28;20048;-78
2022/06/29 09:44:41;;;;;;;11.13;2.17;;;39.60;37.90;;;;;;5069340;28;20188;-78
2022/06/29 09:47:11;;;;;;;1.60;1.10;;;39.30;36.70;;;;;;5050132;28;20044;-79
2022/06/29 09:49:39;;;;;;;5.05;1.20;;;38.80;37.00;;;;;;5068468;28;20051;-76
2022/06/29 09:52:08;;;;;;;6.43;1.33;;;38.50;37.60;;;;;;5068927;28;20045;-78
2022/06/29 09:54:40;;;;;;;14.23;1.80;;;38.70;38.30;;;;;;5068693;28;20114;-78
2022/06/29 09:57:09;;;;;;;9.23;1.33;;;38.80;37.70;;;;;;5070314;28;20132;-78
2022/06/29 10:02:42;;;;;;;3.05;1.20;;;39.20;38.00;;;;;;5069998;28;20190;-78
2022/06/29 10:05:12;;;;;;;6.00;3.55;;;39.60;37.90;;;;;;5068214;28;20147;-78
2022/06/29 10:07:43;;;;;;;6.07;1.20;;;40.30;38.90;;;;;;5070373;28;20059;-77
2022/06/29 10:10:12;;;;;;;10.25;1.45;;;40.70;36.50;;;;;;5068591;28;20135;-75
2022/06/29 10:15:55;;;;;;;12.82;1.67;;;40.90;35.60;;;;;;5068308;28;20071;-77
2022/06/29 10:18:38;;;;;;;6.97;1.38;;;40.40;35.00;;;;;;5068904;28;20051;-78
2022/06/29 10:21:15;;;;;;;3.55;1.35;;;40.00;36.00;;;;;;5073464;28;20057;-78
2022/06/29 10:23:49;;;;;;;4.15;1.48;;;40.10;37.00;;;;;;5073893;28;20049;-77
2022/06/29 10:26:43;;;;;;;5.28;1.40;;;40.20;35.40;;;;;;5073157;28;20064;-77
2022/06/29 10:29:31;;;;;;;6.15;1.40;;;40.20;35.60;;;;;;5071426;28;20094;-76
2022/06/29 10:32:20;;;;;;;7.32;1.70;;;40.40;35.50;;;;;;5073174;28;20055;-76
2022/06/29 10:37:33;;;;;;;5.65;1.00;;;40.40;36.50;;;;;;5073245;28;20159;-77
2022/06/29 10:40:05;;;;;;;6.30;1.27;;;40.80;35.00;;;;;;5054775;28;20052;-76
2022/06/29 10:45:33;;;;;;;1.83;1.45;;;40.50;36.30;;;;;;5072850;28;20053;-77
2022/06/29 10:48:21;;;;;;;5.15;1.40;;;40.80;36.90;;;;;;5071317;28;20047;-77
2022/06/29 10:50:49;;;;;;;1.75;1.25;;;41.20;35.00;;;;;;5072641;28;20205;-76
2022/06/29 10:53:18;;;;;;;3.20;1.30;;;41.30;35.60;;;;;;5069925;28;20527;-76
2022/06/29 10:55:49;;;;;;;3.75;1.40;;;41.30;35.80;;;;;;5054356;28;20573;-77
2022/06/29 10:58:18;;;;;;;1.90;1.25;;;41.30;34.80;;;;;;5071202;28;20051;-76
2022/06/29 11:00:46;;;;;;;4.63;1.30;;;41.20;35.70;;;;;;5069389;28;20432;-77
2022/06/29 11:03:17;;;;;;;3.00;1.45;;;41.30;35.60;;;;;;5071037;28;20056;-78
2022/06/29 11:14:05;;;;;;;4.57;1.65;;;41.80;34.10;;;;;;5071128;28;20539;-85
2022/06/29 11:16:35;;;;;;;1.77;1.60;;;41.40;35.10;;;;;;5069017;28;20052;-86
2022/06/29 11:19:04;;;;;;;1.90;1.00;;;41.50;34.40;;;;;;5069639;28;20583;-86
2022/06/29 11:21:34;;;;;;;2.67;1.50;;;41.70;35.50;;;;;;5070576;28;20056;-85
2022/06/29 11:24:04;;;;;;;1.85;1.65;;;42.10;35.00;;;;;;5071667;28;20048;-86
2022/06/29 11:26:34;;;;;;;3.42;1.60;;;42.40;35.20;;;;;;5064864;28;20420;-85
2022/06/29 11:29:02;;;;;;;4.15;1.80;;;42.80;35.00;;;;;;5059418;28;20060;-87
2022/06/29 11:31:30;;;;;;;4.75;1.52;;;43.20;34.40;;;;;;5049060;28;20080;-85
2022/06/29 11:33:57;;;;;;;2.88;1.83;;;43.50;34.00;;;;;;5050557;28;20068;-85
2022/06/29 11:36:27;;;;;;;4.72;1.50;;;43.60;33.90;;;;;;5053429;28;20099;-87
2022/06/29 11:38:56;;;;;;;2.42;1.30;;;43.50;33.10;;;;;;5057422;28;20068;-87
2022/06/29 11:41:26;;;;;;;4.30;1.50;;;43.10;33.60;;;;;;5067353;28;20121;-88
2022/06/29 11:44:03;;;;;;;3.25;1.25;;;42.70;33.70;;;;;;5073090;28;20080;-87
2022/06/29 11:46:35;;;;;;;4.82;1.30;;;42.60;33.80;;;;;;5066962;28;20055;-85
2022/06/29 11:51:53;;;;;;;3.80;1.30;;;42.20;33.20;;;;;;5067997;28;20044;-87
2022/06/29 11:54:39;;;;;;;4.25;1.42;;;42.10;34.30;;;;;;5072370;28;20064;-88
2022/06/29 11:57:11;;;;;;;6.00;1.75;;;42.40;33.30;;;;;;5073422;28;20056;-88
2022/06/29 11:59:41;;;;;;;4.78;1.55;;;42.60;33.80;;;;;;5073387;28;20062;-86
2022/06/29 12:02:10;;;;;;;5.43;1.80;;;43.00;33.80;;;;;;5072676;28;20480;-88
2022/06/29 12:04:38;;;;;;;4.68;1.65;;;43.40;32.90;;;;;;5072529;28;20063;-87
2022/06/29 12:07:08;;;;;;;4.57;1.88;;;43.30;32.70;;;;;;5072428;28;20049;-86
2022/06/29 12:09:37;;;;;;;7.43;3.35;;;43.20;33.00;;;;;;5072337;28;20067;-89
2022/06/29 12:12:05;;;;;;;6.28;4.07;;;43.40;33.60;;;;;;5072160;28;20052;-87
2022/06/29 12:14:32;;;;;;;3.10;1.38;;;43.70;32.70;;;;;;5070863;28;20121;-87
2022/06/29 12:17:02;;;;;;;2.80;1.60;;;44.00;32.20;;;;;;5062969;28;20045;-86
2022/06/29 12:19:29;;;;;;;3.03;1.60;;;44.50;31.90;;;;;;5049041;28;20182;-87
2022/06/29 12:21:57;;;;;;;1.65;1.45;;;44.60;30.90;;;;;;5055632;28;20055;-87
2022/06/29 12:24:25;;;;;;;4.82;1.05;;;44.00;31.30;;;;;;5072779;28;20044;-87
2022/06/29 12:26:53;;;;;;;3.65;1.23;;;43.90;30.80;;;;;;5063530;28;20107;-82
2022/06/29 12:29:20;;;;;;;3.20;1.50;;;43.50;31.10;;;;;;5064822;28;20055;-83
2022/06/29 12:31:48;;;;;;;6.10;1.70;;;43.40;32.40;;;;;;5070056;28;20516;-82
2022/06/29 12:34:17;;;;;;;5.93;1.50;;;43.50;31.90;;;;;;5071722;28;20056;-80
2022/06/29 12:36:44;;;;;;;5.00;1.50;;;43.70;32.50;;;;;;5070047;28;20051;-81
2022/06/29 12:39:12;;;;;;;3.85;1.60;;;43.90;31.50;;;;;;5070896;28;20040;-80
2022/06/29 12:41:39;;;;;;;1.75;1.60;;;43.90;31.80;;;;;;5062898;28;20532;-82
2022/06/29 12:44:07;;;;;;;5.95;1.90;;;43.90;30.80;;;;;;5080191;28;20455;-81
2022/06/29 12:46:35;;;;;;;2.55;1.38;;;43.90;31.70;;;;;;5071078;28;20511;-83
2022/06/29 12:49:03;;;;;;;4.25;1.48;;;43.70;30.10;;;;;;5071351;28;20102;-81
2022/06/29 12:51:32;;;;;;;2.13;1.50;;;43.30;30.90;;;;;;5070979;28;20056;-82
2022/06/29 12:54:00;;;;;;;3.05;1.33;;;43.00;32.40;;;;;;5069971;28;20482;-82
2022/06/29 12:56:27;;;;;;;3.13;1.70;;;43.20;32.10;;;;;;5070892;28;20079;-81
2022/06/29 12:58:55;;;;;;;3.10;1.60;;;43.40;32.50;;;;;;5068953;28;20625;-79
2022/06/29 13:01:22;;;;;;;1.98;1.40;;;43.70;32.40;;;;;;5070918;28;20066;-82
2022/06/29 13:03:49;;;;;;;2.05;1.40;;;44.20;32.00;;;;;;5070384;28;20489;-84
2022/06/29 13:06:17;;;;;;;3.42;1.50;;;44.10;31.80;;;;;;5070690;28;20416;-79
2022/06/29 13:08:45;;;;;;;2.13;1.70;;;44.10;31.70;;;;;;5069030;28;20102;-87
2022/06/29 13:11:14;;;;;;;5.55;1.40;;;44.10;31.10;;;;;;5063382;28;20468;-89
2022/06/29 13:13:42;;;;;;;2.50;1.70;;;43.90;31.00;;;;;;5046031;28;20135;-88
2022/06/29 13:16:10;;;;;;;1.48;1.27;;;43.90;32.00;;;;;;5050942;28;20064;-88
2022/06/29 13:18:37;;;;;;;6.10;1.85;;;44.00;31.60;;;;;;5063360;28;20131;-83
2022/06/29 13:21:05;;;;;;;5.28;1.80;;;44.00;31.70;;;;;;5070123;28;20052;-82
2022/06/29 13:23:33;;;;;;;7.13;2.03;;;44.00;31.10;;;;;;5069297;28;20100;-79